ICT,Max TemperatureF,Mean TemperatureF,Min TemperatureF,Max Dew PointF,MeanDew PointF,Min DewpointF,Max Humidity, Mean Humidity, Min Humidity, Max Sea Level PressureIn, Mean Sea Level PressureIn, Min Sea Level PressureIn, Max VisibilityMiles, Mean VisibilityMiles, Min VisibilityMiles, Max Wind SpeedMPH, Mean Wind SpeedMPH, Max Gust SpeedMPH,PrecipitationIn, CloudCover, Events, WindDirDegrees
2013-4-1,95,86,77,79,76,73,94,75,50,29.86,29.81,29.74,6,5,4,14,3,,0.16,6,,331
2013-4-2,95,86,77,79,76,70,94,74,44,29.86,29.79,29.71,6,6,5,16,4,,0.00,6,,46
2013-4-3,95,86,76,79,75,55,89,70,29,29.83,29.77,29.69,6,6,5,15,3,,0.00,6,,301
2013-4-4,91,84,78,80,77,73,89,74,63,29.83,29.76,29.68,6,5,5,15,4,,0.00,6,,278
2013-4-5,90,83,76,79,76,73,94,73,59,29.83,29.76,29.70,6,4,1,16,9,,0.47,6,Rain,291
2013-4-6,91,84,76,76,73,72,74,64,55,29.83,29.77,29.70,6,4,2,20,14,,0.00,6,,287
2013-4-7,90,86,81,76,74,72,74,66,56,29.83,29.75,29.68,6,4,3,17,12,29,0.00,5,,290
2013-4-8,90,84,77,76,74,72,85,69,57,29.86,29.78,29.71,6,4,2,17,10,,0.00,6,,296
2013-4-9,91,84,76,77,75,73,88,71,59,29.86,29.79,29.71,6,5,4,16,7,,0.00,5,,293
2013-4-10,89,82,75,80,75,70,94,78,59,29.86,29.80,29.71,6,5,3,17,5,,0.04,6,Rain-Thunderstorm,293
2013-4-11,87,80,74,77,75,73,94,85,59,29.89,29.81,29.76,5,4,3,12,2,,0.12,6,Rain,288
2013-4-12,91,82,74,78,74,70,96,78,44,29.86,29.79,29.71,6,5,2,14,3,,0.08,6,Rain-Thunderstorm,38
2013-4-13,88,82,76,78,74,72,94,81,66,29.89,29.80,29.74,6,5,4,15,3,,0.00,6,Rain,66
2013-4-14,84,80,76,79,75,73,99,83,74,29.92,29.82,29.74,6,5,2,16,6,,1.38,6,Rain,79
2013-4-15,88,80,73,78,74,73,100,79,59,29.83,29.79,29.73,6,6,3,10,5,,0.24,6,Rain,55
2013-4-16,84,80,75,78,75,73,100,85,74,29.83,29.77,29.70,6,5,2,18,5,30,0.20,6,Rain,278
2013-4-17,83,78,72,78,75,72,100,84,76,29.89,29.79,29.71,6,4,1,18,8,33,0.16,6,Rain-Thunderstorm,284
2013-4-18,89,84,78,79,76,75,94,77,63,29.83,29.78,29.73,6,6,5,21,7,,0.01,6,Rain,291
2013-4-19,89,82,74,78,75,72,95,73,62,29.86,29.79,29.71,6,6,6,15,8,,0.00,5,,292
2013-4-20,89,82,74,76,75,73,95,73,57,29.86,29.79,29.74,6,6,5,14,7,,0.00,5,,291
2013-4-21,90,83,76,77,75,72,94,76,55,29.86,29.81,29.74,6,5,4,15,6,,0.00,4,,296
2013-4-22,90,82,74,78,75,73,95,78,55,29.89,29.81,29.73,6,5,4,14,3,,0.00,6,,261
2013-4-23,90,84,77,80,76,72,94,76,55,29.89,29.83,29.74,6,5,3,13,3,,0.24,5,Rain,300
2013-4-24,92,84,75,78,75,72,94,73,52,29.92,29.84,29.75,6,5,3,14,4,,0.24,6,Rain-Thunderstorm,163
2013-4-25,90,82,75,78,76,73,94,80,57,29.92,29.85,29.77,6,5,3,13,5,,0.24,6,Rain-Thunderstorm,262
2013-4-26,87,80,74,78,76,73,94,78,62,29.92,29.85,29.77,6,6,4,12,3,,0.02,6,Rain-Thunderstorm,270
2013-4-27,82,79,76,78,74,73,93,83,74,29.95,29.84,29.75,6,6,4,23,4,,0.31,6,Rain-Thunderstorm,275
2013-4-28,89,82,74,77,74,68,95,77,52,29.86,29.80,29.72,6,6,6,15,3,,0.04,6,,272
2013-4-29,90,84,77,78,76,75,94,79,62,29.83,29.79,29.71,6,5,3,13,4,,0.12,6,Rain,298
2013-4-30,90,82,74,79,75,73,94,81,66,29.89,29.81,29.76,6,5,1,10,4,,0.16,6,Rain-Thunderstorm,339